Time;durP1;ratioP1;P1;durP2;ratioP2;P2;SDS_P1;SDS_P2;PMS_P1;PMS_P2;Temp;Humidity;BMP_temperature;BMP_pressure;BME280_temperature;BME280_humidity;BME280_pressure;Samples;Min_cycle;Max_cycle;Signal;HPM_P1;HPM_P2
2023/06/22 00:01:37;;;;;;;40.63;30.58;;;17.30;99.90;;;;;;5046977;28;20498;-69
2023/06/22 00:04:06;;;;;;;42.33;32.95;;;17.30;99.90;;;;;;5047328;28;20056;-68
2023/06/22 00:06:32;;;;;;;45.85;34.25;;;17.30;99.90;;;;;;5063299;28;20039;-67
2023/06/22 00:09:03;;;;;;;48.15;34.20;;;17.30;99.90;;;;;;5063085;28;20182;-68
2023/06/22 00:11:50;;;;;;;50.40;37.05;;;17.30;99.90;;;;;;5063336;28;20294;-67
2023/06/22 00:14:18;;;;;;;46.88;34.83;;;17.40;99.90;;;;;;5063972;28;20028;-69
2023/06/22 00:16:44;;;;;;;55.22;37.50;;;17.40;99.90;;;;;;5047033;28;20044;-68
2023/06/22 00:19:12;;;;;;;47.00;33.33;;;17.40;99.90;;;;;;5046445;28;20322;-69
2023/06/22 00:21:42;;;;;;;54.78;37.08;;;17.30;99.90;;;;;;5069012;28;20104;-70
2023/06/22 00:24:22;;;;;;;50.42;38.03;;;17.30;99.90;;;;;;5066247;28;20075;-68
2023/06/22 00:26:53;;;;;;;58.67;39.92;;;17.30;99.90;;;;;;5066516;28;20078;-69
2023/06/22 00:29:19;;;;;;;50.75;36.97;;;17.30;99.90;;;;;;5070813;28;20279;-69
2023/06/22 00:31:45;;;;;;;47.38;36.00;;;17.40;99.90;;;;;;5063583;28;20139;-67
2023/06/22 00:34:16;;;;;;;39.20;29.55;;;17.40;99.90;;;;;;5053705;28;20530;-70
2023/06/22 00:36:54;;;;;;;23.73;19.38;;;17.30;99.90;;;;;;5059145;28;20126;-68
2023/06/22 00:39:19;;;;;;;26.08;20.92;;;17.30;99.90;;;;;;5079663;28;20043;-67
2023/06/22 00:41:49;;;;;;;34.47;25.23;;;17.20;99.90;;;;;;5064147;28;20040;-68
2023/06/22 00:44:26;;;;;;;38.10;29.63;;;17.10;99.90;;;;;;5058868;28;20121;-69
2023/06/22 00:46:52;;;;;;;38.45;26.92;;;17.10;99.90;;;;;;5066596;28;20052;-68
2023/06/22 00:49:24;;;;;;;51.10;37.60;;;17.00;99.90;;;;;;5061628;28;20534;-69
2023/06/22 00:51:53;;;;;;;43.67;31.20;;;17.00;99.90;;;;;;5054353;28;20503;-68
2023/06/22 00:54:25;;;;;;;37.42;28.38;;;16.90;99.90;;;;;;5064646;28;20126;-73
2023/06/22 00:56:54;;;;;;;37.50;29.08;;;16.90;99.90;;;;;;5046977;28;20049;-69
2023/06/22 00:59:25;;;;;;;39.53;31.83;;;16.90;99.90;;;;;;5068445;28;20055;-69
2023/06/22 01:01:52;;;;;;;40.35;30.88;;;16.80;99.90;;;;;;5065873;28;20055;-69
2023/06/22 01:04:18;;;;;;;42.63;28.33;;;16.70;99.90;;;;;;5059884;28;20044;-69
2023/06/22 01:07:05;;;;;;;31.48;25.98;;;16.70;99.90;;;;;;5060505;28;20060;-69
2023/06/22 01:09:46;;;;;;;58.30;33.20;;;16.60;99.90;;;;;;5029003;28;20581;-69
2023/06/22 01:12:17;;;;;;;77.75;40.53;;;16.60;99.90;;;;;;5007782;28;20124;-69
2023/06/22 01:14:57;;;;;;;124.03;44.95;;;16.50;99.90;;;;;;5015514;28;20151;-71
2023/06/22 01:17:41;;;;;;;58.40;38.25;;;16.40;99.90;;;;;;5028945;28;20534;-70
2023/06/22 01:20:17;;;;;;;53.03;34.33;;;16.40;99.90;;;;;;5039758;28;20045;-70
2023/06/22 01:23:12;;;;;;;49.45;33.65;;;16.40;99.90;;;;;;5007948;28;20144;-71
2023/06/22 01:26:03;;;;;;;46.97;34.72;;;16.40;99.90;;;;;;5024773;28;20158;-70
2023/06/22 01:28:47;;;;;;;51.33;35.60;;;16.40;99.90;;;;;;5022779;28;20040;-68
2023/06/22 01:31:23;;;;;;;50.25;36.95;;;16.40;99.90;;;;;;5008664;28;20052;-69
2023/06/22 01:34:04;;;;;;;51.78;38.65;;;16.40;99.90;;;;;;5019158;28;20167;-72
2023/06/22 01:36:49;;;;;;;63.97;45.17;;;16.30;99.90;;;;;;5047314;28;20041;-70
2023/06/22 01:39:24;;;;;;;54.10;42.10;;;16.30;99.90;;;;;;5052038;28;20698;-71
2023/06/22 01:42:03;;;;;;;63.42;44.60;;;16.30;99.90;;;;;;5066385;28;20044;-69
2023/06/22 01:44:46;;;;;;;53.92;40.17;;;16.30;99.90;;;;;;5066945;28;20048;-71
2023/06/22 01:47:48;;;;;;;54.63;42.88;;;16.30;99.90;;;;;;5067559;28;20047;-73
2023/06/22 01:50:17;;;;;;;58.97;46.55;;;16.30;99.90;;;;;;5054051;28;20051;-70
2023/06/22 01:53:13;;;;;;;52.83;42.42;;;16.30;99.90;;;;;;5081733;28;20048;-71
2023/06/22 01:55:58;;;;;;;61.88;43.50;;;16.20;99.90;;;;;;5067824;28;20044;-73
2023/06/22 01:58:45;;;;;;;59.22;43.30;;;16.20;99.90;;;;;;5049620;28;20044;-72
2023/06/22 02:01:54;;;;;;;65.18;45.15;;;16.30;99.90;;;;;;5067069;28;20633;-68
2023/06/22 02:04:27;;;;;;;67.38;45.47;;;16.30;99.90;;;;;;5075095;28;20450;-70
2023/06/22 02:07:15;;;;;;;79.43;51.20;;;16.30;99.90;;;;;;5069750;28;20043;-73
2023/06/22 02:09:59;;;;;;;95.82;57.33;;;16.30;99.90;;;;;;5061267;28;20103;-71
2023/06/22 02:12:27;;;;;;;76.20;51.15;;;16.30;99.90;;;;;;5048493;28;20703;-72
2023/06/22 02:15:41;;;;;;;69.75;47.35;;;16.20;99.90;;;;;;5058731;28;20074;-71
2023/06/22 02:18:13;;;;;;;98.60;57.10;;;16.20;99.90;;;;;;5085669;28;20043;-70
2023/06/22 02:20:42;;;;;;;97.38;57.17;;;16.20;99.90;;;;;;5026486;28;20091;-72
2023/06/22 02:23:14;;;;;;;98.55;57.45;;;16.20;99.90;;;;;;5025363;28;20077;-69
2023/06/22 02:25:50;;;;;;;88.03;55.38;;;16.30;99.90;;;;;;4994630;28;20048;-72
2023/06/22 02:28:31;;;;;;;86.22;51.65;;;16.30;99.90;;;;;;5039936;28;20080;-70
2023/06/22 02:31:29;;;;;;;72.43;47.78;;;16.30;99.90;;;;;;5043703;28;20124;-68
2023/06/22 02:34:03;;;;;;;67.68;45.53;;;16.30;99.90;;;;;;5025976;28;20381;-73
2023/06/22 02:36:36;;;;;;;66.03;44.78;;;16.40;99.90;;;;;;5009667;28;20041;-71
2023/06/22 02:39:04;;;;;;;66.78;43.67;;;16.40;99.90;;;;;;5011152;28;20041;-70
2023/06/22 02:41:39;;;;;;;62.85;41.58;;;16.40;99.90;;;;;;5025852;28;20143;-72
2023/06/22 02:44:07;;;;;;;50.20;37.70;;;16.40;99.90;;;;;;5013518;28;20470;-72
2023/06/22 02:47:15;;;;;;;52.30;36.03;;;16.40;99.90;;;;;;5050075;28;20095;-71
2023/06/22 02:50:05;;;;;;;59.05;38.83;;;16.30;99.90;;;;;;5025485;28;20404;-73
2023/06/22 02:52:39;;;;;;;55.70;40.47;;;16.30;99.90;;;;;;5020707;28;20084;-71
2023/06/22 02:55:14;;;;;;;57.58;40.45;;;16.20;99.90;;;;;;5026768;28;20132;-70
2023/06/22 02:57:59;;;;;;;55.42;39.78;;;16.20;99.90;;;;;;5010268;28;20478;-71
2023/06/22 03:00:35;;;;;;;58.08;41.65;;;16.20;99.90;;;;;;5021792;28;20509;-70
2023/06/22 03:03:26;;;;;;;62.10;42.58;;;16.20;99.90;;;;;;5028872;28;20045;-71
2023/06/22 03:06:13;;;;;;;53.75;40.55;;;16.20;99.90;;;;;;5009240;28;20578;-69
2023/06/22 03:08:42;;;;;;;58.33;42.67;;;16.30;99.90;;;;;;5011095;28;20560;-69
2023/06/22 03:11:12;;;;;;;60.97;43.85;;;16.30;99.90;;;;;;5025333;28;20057;-71
2023/06/22 03:13:53;;;;;;;63.10;45.13;;;16.20;99.90;;;;;;5061256;28;20048;-71
2023/06/22 03:16:33;;;;;;;73.72;48.70;;;16.20;99.90;;;;;;5025916;28;20208;-70
2023/06/22 03:19:21;;;;;;;55.97;41.38;;;16.20;99.90;;;;;;5033403;28;20098;-71
2023/06/22 03:22:02;;;;;;;61.63;46.87;;;16.20;99.90;;;;;;5029201;28;20551;-71
2023/06/22 03:24:57;;;;;;;76.95;51.88;;;16.20;99.90;;;;;;5075574;28;20079;-68
2023/06/22 03:27:31;;;;;;;68.93;48.00;;;16.20;99.90;;;;;;5066466;28;20051;-69
2023/06/22 03:30:08;;;;;;;54.10;41.58;;;16.10;99.90;;;;;;5072423;28;20810;-70
2023/06/22 03:32:43;;;;;;;56.33;41.80;;;16.10;99.90;;;;;;5044814;28;20539;-72
2023/06/22 03:35:30;;;;;;;88.25;53.50;;;16.10;99.90;;;;;;5043685;28;20056;-72
2023/06/22 03:38:06;;;;;;;94.18;54.75;;;16.10;99.90;;;;;;5062570;28;20041;-71
2023/06/22 03:40:43;;;;;;;88.60;53.78;;;16.10;99.90;;;;;;5030035;28;20118;-68
2023/06/22 03:43:12;;;;;;;91.20;55.20;;;16.00;99.90;;;;;;5045079;28;20044;-74
2023/06/22 03:45:48;;;;;;;;;;;;;;;;;;;;;
2023/06/22 03:48:40;;;;;;;83.80;54.33;;;16.10;99.90;;;;;;5062537;28;20045;-72
2023/06/22 03:51:12;;;;;;;98.13;55.85;;;16.10;99.90;;;;;;5063700;28;20076;-72
2023/06/22 03:53:53;;;;;;;98.05;58.72;;;16.10;99.90;;;;;;5065518;28;20051;-69
2023/06/22 03:56:35;;;;;;;94.50;56.60;;;16.10;99.90;;;;;;5065623;28;20725;-70
2023/06/22 03:59:17;;;;;;;91.38;55.72;;;16.20;99.90;;;;;;5062595;28;20132;-68
2023/06/22 04:02:03;;;;;;;88.53;53.13;;;16.20;99.90;;;;;;5056027;28;20053;-69
2023/06/22 04:04:43;;;;;;;83.55;54.17;;;16.20;99.90;;;;;;5059598;28;20048;-70
2023/06/22 04:07:44;;;;;;;78.10;50.22;;;16.30;99.90;;;;;;5063122;28;20488;-72
2023/06/22 04:10:16;;;;;;;79.80;52.13;;;16.40;99.90;;;;;;5038615;28;20055;-72
2023/06/22 04:12:45;;;;;;;76.30;49.05;;;16.50;99.90;;;;;;5063051;28;20047;-70
2023/06/22 04:15:16;;;;;;;73.50;47.00;;;16.60;99.90;;;;;;5063477;28;20047;-71
2023/06/22 04:20:37;;;;;;;63.70;46.00;;;16.70;99.90;;;;;;5047255;28;20101;-71
2023/06/22 04:23:36;;;;;;;67.07;45.05;;;16.90;99.90;;;;;;5063588;28;20131;-72
2023/06/22 04:26:24;;;;;;;61.15;43.63;;;17.00;99.90;;;;;;5063668;28;20457;-71
2023/06/22 04:28:55;;;;;;;58.75;42.13;;;17.00;99.90;;;;;;5055256;28;20056;-71
2023/06/22 04:31:42;;;;;;;59.78;41.35;;;17.10;99.90;;;;;;5051215;28;20381;-72
2023/06/22 04:34:11;;;;;;;59.25;40.90;;;17.10;99.90;;;;;;5064780;28;20040;-72
2023/06/22 04:36:54;;;;;;;57.80;42.47;;;17.20;99.90;;;;;;5047032;28;20079;-75
2023/06/22 04:39:32;;;;;;;55.85;40.75;;;17.20;99.90;;;;;;5063159;28;20056;-69
2023/06/22 04:42:20;;;;;;;59.47;41.80;;;17.20;99.90;;;;;;5047453;28;20048;-69
2023/06/22 04:45:08;;;;;;;55.85;42.67;;;17.30;99.90;;;;;;5048357;28;20052;-71
2023/06/22 04:47:39;;;;;;;56.08;42.40;;;17.30;99.90;;;;;;5063664;28;20044;-69
2023/06/22 04:50:05;;;;;;;59.15;43.03;;;17.30;99.90;;;;;;5061561;28;20182;-68
2023/06/22 04:52:37;;;;;;;57.05;42.03;;;17.40;99.90;;;;;;5067632;28;20043;-74
2023/06/22 04:55:19;;;;;;;63.50;42.85;;;17.50;99.90;;;;;;5083782;28;20044;-75
2023/06/22 04:57:56;;;;;;;60.30;43.20;;;17.60;99.90;;;;;;5067398;28;20051;-71
2023/06/22 05:00:31;;;;;;;62.55;45.05;;;17.60;99.90;;;;;;5067805;28;20063;-71
2023/06/22 05:03:03;;;;;;;65.78;46.25;;;17.70;99.90;;;;;;5046807;28;20381;-70
2023/06/22 05:05:35;;;;;;;60.17;45.83;;;17.90;99.90;;;;;;5062648;28;20127;-72
2023/06/22 05:08:18;;;;;;;63.80;45.50;;;18.10;99.90;;;;;;5066533;28;20051;-70
2023/06/22 05:10:47;;;;;;;60.35;43.63;;;18.20;99.90;;;;;;5070328;28;20047;-71
2023/06/22 05:13:31;;;;;;;62.95;44.20;;;18.40;99.90;;;;;;5070335;28;20135;-69
2023/06/22 05:16:00;;;;;;;60.67;43.00;;;18.40;99.90;;;;;;5050827;28;20055;-70
2023/06/22 05:18:30;;;;;;;58.90;43.28;;;18.40;99.90;;;;;;5083031;28;20090;-71
2023/06/22 05:20:57;;;;;;;59.05;42.33;;;18.40;99.90;;;;;;5049299;28;20551;-69
2023/06/22 05:23:23;;;;;;;58.55;42.00;;;18.40;99.90;;;;;;5084328;28;20044;-67
2023/06/22 05:25:49;;;;;;;59.92;42.33;;;18.60;99.90;;;;;;5067834;28;20527;-68
2023/06/22 05:28:15;;;;;;;52.92;40.25;;;19.10;99.90;;;;;;5063983;28;20036;-69
2023/06/22 05:30:41;;;;;;;61.75;39.42;;;19.60;99.90;;;;;;5056679;28;20056;-65
2023/06/22 05:33:07;;;;;;;53.75;36.75;;;19.60;99.90;;;;;;5059154;28;20046;-66
2023/06/22 05:35:33;;;;;;;49.97;37.92;;;19.60;99.90;;;;;;5057735;28;20333;-63
2023/06/22 05:37:58;;;;;;;46.33;36.83;;;19.90;99.90;;;;;;5078138;28;20051;-64
2023/06/22 05:40:24;;;;;;;49.33;35.97;;;19.80;99.90;;;;;;5053514;28;20136;-68
2023/06/22 05:42:50;;;;;;;41.75;31.95;;;19.70;99.90;;;;;;5051140;28;20121;-65
2023/06/22 05:45:16;;;;;;;43.45;33.55;;;19.50;99.90;;;;;;5067231;28;20144;-67
2023/06/22 05:47:42;;;;;;;41.75;31.00;;;19.40;99.90;;;;;;5079779;28;20039;-67
2023/06/22 05:50:08;;;;;;;38.47;29.48;;;19.30;99.90;;;;;;5064740;28;20615;-69
2023/06/22 05:52:34;;;;;;;35.08;28.73;;;19.40;99.90;;;;;;5066538;28;20097;-66
2023/06/22 05:55:02;;;;;;;36.30;29.40;;;19.50;99.90;;;;;;5077160;28;20028;-66
2023/06/22 05:57:27;;;;;;;37.53;28.05;;;19.50;99.90;;;;;;5069267;28;20051;-66
2023/06/22 05:59:53;;;;;;;39.60;30.02;;;19.50;99.90;;;;;;5058299;28;20527;-67
2023/06/22 06:02:20;;;;;;;35.58;26.77;;;19.50;99.90;;;;;;5048060;28;20067;-65
2023/06/22 06:04:45;;;;;;;33.92;27.67;;;19.50;99.90;;;;;;5063893;28;20048;-67
2023/06/22 06:07:14;;;;;;;34.72;26.75;;;19.50;99.90;;;;;;5064582;28;20515;-68
2023/06/22 06:09:39;;;;;;;35.28;27.83;;;19.50;99.90;;;;;;5065183;28;20090;-68
2023/06/22 06:12:05;;;;;;;33.45;25.00;;;19.60;99.90;;;;;;5064461;28;20072;-66
2023/06/22 06:14:31;;;;;;;34.72;25.65;;;19.70;99.90;;;;;;5064664;28;20072;-64
2023/06/22 06:16:57;;;;;;;31.45;25.02;;;19.80;99.90;;;;;;5064899;28;20052;-67
2023/06/22 06:19:23;;;;;;;29.55;23.60;;;19.80;99.90;;;;;;5047546;28;20067;-66
2023/06/22 06:21:49;;;;;;;31.27;23.20;;;19.80;99.90;;;;;;5063963;28;20044;-61
2023/06/22 06:24:15;;;;;;;32.25;23.23;;;19.80;99.90;;;;;;5064641;28;20040;-68
2023/06/22 06:26:41;;;;;;;32.33;24.95;;;19.80;99.90;;;;;;5064665;28;20553;-69
2023/06/22 06:29:06;;;;;;;25.25;21.33;;;19.90;99.90;;;;;;5063816;28;20070;-64
2023/06/22 06:31:33;;;;;;;29.55;21.85;;;19.80;99.90;;;;;;5064205;28;20043;-62
2023/06/22 06:33:59;;;;;;;28.10;21.42;;;19.70;99.90;;;;;;5064073;28;20107;-64
2023/06/22 06:36:24;;;;;;;27.73;19.17;;;19.80;99.90;;;;;;5046725;28;20178;-68
2023/06/22 06:38:50;;;;;;;24.67;18.42;;;19.90;99.90;;;;;;5064628;28;20124;-68
2023/06/22 06:41:16;;;;;;;24.73;18.88;;;20.10;99.90;;;;;;5064574;28;20118;-67
2023/06/22 06:43:45;;;;;;;28.30;20.80;;;20.20;99.90;;;;;;5080409;28;20044;-69
2023/06/22 06:46:11;;;;;;;25.63;19.55;;;20.40;99.90;;;;;;5064658;28;20045;-69
2023/06/22 06:48:37;;;;;;;26.02;19.17;;;20.50;99.90;;;;;;5065874;28;20048;-67
2023/06/22 06:51:03;;;;;;;27.38;19.73;;;20.60;99.90;;;;;;5083073;28;20443;-66
2023/06/22 06:53:29;;;;;;;24.60;19.33;;;20.60;99.90;;;;;;5059332;28;20048;-65
2023/06/22 06:55:54;;;;;;;25.42;20.92;;;20.70;99.90;;;;;;5047772;28;20083;-62
2023/06/22 06:58:20;;;;;;;26.40;20.13;;;20.70;99.90;;;;;;5063689;28;20079;-67
2023/06/22 07:00:46;;;;;;;22.20;16.73;;;20.80;99.90;;;;;;5015130;28;1387536;-65
2023/06/22 07:03:12;;;;;;;18.70;14.60;;;20.90;99.90;;;;;;5064378;28;20123;-68
2023/06/22 07:05:38;;;;;;;19.42;14.75;;;21.00;99.90;;;;;;5064311;28;20316;-63
2023/06/22 07:08:03;;;;;;;17.95;13.23;;;21.10;99.90;;;;;;5064825;28;20117;-68
2023/06/22 07:10:33;;;;;;;17.83;13.77;;;21.10;99.90;;;;;;5064646;28;20135;-64
2023/06/22 07:12:58;;;;;;;16.75;13.27;;;21.20;99.90;;;;;;5064614;28;20056;-68
2023/06/22 07:15:25;;;;;;;19.60;13.93;;;21.10;99.90;;;;;;5077627;28;20489;-67
2023/06/22 07:17:50;;;;;;;17.67;13.43;;;21.10;99.90;;;;;;5067196;28;20133;-68
2023/06/22 07:20:16;;;;;;;16.83;12.38;;;21.00;99.90;;;;;;5065809;28;20081;-69
2023/06/22 07:22:46;;;;;;;14.52;10.95;;;21.10;99.90;;;;;;5084453;28;20149;-69
2023/06/22 07:25:16;;;;;;;14.60;9.80;;;21.20;99.90;;;;;;5085029;28;20193;-66
2023/06/22 07:27:58;;;;;;;14.93;10.32;;;21.20;99.90;;;;;;5063728;28;20050;-67
2023/06/22 07:30:24;;;;;;;16.75;13.02;;;21.30;99.90;;;;;;5068871;28;20048;-62
2023/06/22 07:32:50;;;;;;;13.52;10.35;;;21.30;99.90;;;;;;5064877;28;20328;-65
2023/06/22 07:35:16;;;;;;;15.00;10.32;;;21.30;99.90;;;;;;5046497;28;20036;-64
2023/06/22 07:37:42;;;;;;;13.63;9.32;;;21.10;99.90;;;;;;5064426;28;20033;-63
2023/06/22 07:40:09;;;;;;;16.55;9.95;;;21.00;99.90;;;;;;5047936;28;20044;-66
2023/06/22 07:42:35;;;;;;;12.75;9.00;;;21.00;99.90;;;;;;5064021;28;20090;-64
2023/06/22 07:45:03;;;;;;;11.77;8.25;;;21.00;99.90;;;;;;5064186;28;20535;-65
2023/06/22 07:47:29;;;;;;;13.45;8.60;;;21.10;99.90;;;;;;5048202;28;20515;-62
2023/06/22 07:49:58;;;;;;;12.30;8.27;;;21.10;99.90;;;;;;5064461;28;20510;-65
2023/06/22 07:52:25;;;;;;;13.00;7.72;;;21.20;99.90;;;;;;5047813;28;20040;-66
2023/06/22 07:54:51;;;;;;;11.90;7.30;;;21.30;99.90;;;;;;5064103;28;20044;-67
2023/06/22 07:57:17;;;;;;;12.30;7.68;;;21.30;99.90;;;;;;5047124;28;20032;-66
2023/06/22 07:59:42;;;;;;;10.00;6.55;;;21.40;99.90;;;;;;5064048;28;20074;-65
2023/06/22 08:02:09;;;;;;;12.23;6.93;;;21.50;99.90;;;;;;5063426;28;20524;-65
2023/06/22 08:04:35;;;;;;;11.50;6.07;;;21.50;99.90;;;;;;5046798;28;20152;-69
2023/06/22 08:07:01;;;;;;;10.27;6.60;;;21.50;99.90;;;;;;5063109;28;20048;-67
2023/06/22 08:09:32;;;;;;;9.88;5.72;;;21.50;99.90;;;;;;5063947;28;20036;-69
2023/06/22 08:11:58;;;;;;;11.68;6.50;;;21.50;99.90;;;;;;5063653;28;20373;-69
2023/06/22 08:14:26;;;;;;;10.60;7.03;;;21.40;99.90;;;;;;5063078;28;20043;-64
2023/06/22 08:16:51;;;;;;;12.80;8.52;;;21.40;99.90;;;;;;5063598;28;20040;-65
2023/06/22 08:19:17;;;;;;;14.15;6.05;;;21.40;99.90;;;;;;5069914;28;20032;-69
2023/06/22 08:21:43;;;;;;;11.70;6.95;;;21.60;99.90;;;;;;5065687;28;20047;-66
2023/06/22 08:24:09;;;;;;;10.82;7.55;;;21.70;99.90;;;;;;5065285;28;20082;-67
2023/06/22 08:26:37;;;;;;;11.25;7.10;;;21.80;99.90;;;;;;5047307;28;20535;-66
2023/06/22 08:29:03;;;;;;;13.05;8.43;;;21.90;99.90;;;;;;5064448;28;20036;-69
2023/06/22 08:31:30;;;;;;;16.45;8.32;;;22.00;99.90;;;;;;5066280;28;20051;-66
2023/06/22 08:33:56;;;;;;;14.95;8.98;;;22.10;99.90;;;;;;5059665;28;20113;-66
2023/06/22 08:36:25;;;;;;;12.77;9.85;;;22.00;99.90;;;;;;5062362;28;20102;-66
2023/06/22 08:38:52;;;;;;;13.55;8.50;;;22.00;99.90;;;;;;5063659;28;20535;-66
2023/06/22 08:41:18;;;;;;;12.10;6.88;;;22.00;99.90;;;;;;5048764;28;20176;-65
2023/06/22 08:43:44;;;;;;;10.63;7.07;;;22.10;99.90;;;;;;5082838;28;20135;-66
2023/06/22 08:46:13;;;;;;;10.20;6.30;;;22.20;99.90;;;;;;5063148;28;20040;-69
2023/06/22 08:48:39;;;;;;;11.70;6.75;;;22.20;99.90;;;;;;5063748;28;20080;-65
2023/06/22 08:51:05;;;;;;;14.15;8.38;;;22.40;99.90;;;;;;5061659;28;20508;-67
2023/06/22 08:53:30;;;;;;;13.93;8.23;;;22.40;99.90;;;;;;5062998;28;20541;-63
2023/06/22 08:55:56;;;;;;;12.82;7.57;;;22.30;99.90;;;;;;5063409;28;20093;-64
2023/06/22 08:58:24;;;;;;;13.48;7.57;;;22.40;99.90;;;;;;5063008;28;20052;-69
2023/06/22 09:00:50;;;;;;;12.98;7.47;;;22.40;99.90;;;;;;5062247;28;20396;-69
2023/06/22 09:03:16;;;;;;;16.30;7.82;;;22.50;99.90;;;;;;5045561;28;20139;-65
2023/06/22 09:05:42;;;;;;;10.82;6.82;;;22.50;99.90;;;;;;5045506;28;20044;-62
2023/06/22 09:08:07;;;;;;;10.93;7.70;;;22.80;99.90;;;;;;5063329;28;20043;-68
2023/06/22 09:10:33;;;;;;;15.30;8.48;;;22.80;99.90;;;;;;5059515;28;20078;-64
2023/06/22 09:12:59;;;;;;;14.27;8.63;;;23.00;99.90;;;;;;5049315;28;20037;-67
2023/06/22 09:15:24;;;;;;;13.45;8.98;;;23.10;99.90;;;;;;5068860;28;20037;-65
2023/06/22 09:17:50;;;;;;;12.10;8.63;;;23.00;99.90;;;;;;5062959;28;20119;-70
2023/06/22 09:20:16;;;;;;;15.05;8.32;;;23.10;99.90;;;;;;5045282;28;20079;-65
2023/06/22 09:22:42;;;;;;;13.48;9.80;;;23.10;99.90;;;;;;5062562;28;20045;-67
2023/06/22 09:25:09;;;;;;;12.80;8.77;;;23.10;99.90;;;;;;5046774;28;20450;-62
2023/06/22 09:27:34;;;;;;;14.88;9.50;;;23.10;99.90;;;;;;5065832;28;20100;-70
2023/06/22 09:30:00;;;;;;;14.48;8.68;;;23.10;99.90;;;;;;5072173;28;20040;-64
2023/06/22 09:32:26;;;;;;;14.93;9.00;;;23.10;99.90;;;;;;5045936;28;20044;-64
2023/06/22 09:34:52;;;;;;;13.80;8.93;;;23.10;99.90;;;;;;5044505;28;20517;-65
2023/06/22 09:37:18;;;;;;;16.10;8.55;;;23.20;99.90;;;;;;5045798;28;20114;-66
2023/06/22 09:39:44;;;;;;;12.07;7.40;;;23.30;99.90;;;;;;5063399;28;20091;-61
2023/06/22 09:42:10;;;;;;;13.25;8.18;;;23.40;99.90;;;;;;5063385;28;20040;-66
2023/06/22 09:44:35;;;;;;;12.00;7.95;;;23.30;99.90;;;;;;5062489;28;20052;-69
2023/06/22 09:47:01;;;;;;;13.15;7.63;;;23.30;99.90;;;;;;5064140;28;20040;-64
2023/06/22 09:49:27;;;;;;;12.27;7.28;;;23.30;99.90;;;;;;5063493;28;20091;-67
2023/06/22 09:51:52;;;;;;;11.93;8.35;;;23.40;99.90;;;;;;5078266;28;20042;-65
2023/06/22 09:54:18;;;;;;;12.43;7.00;;;23.40;99.90;;;;;;5066310;28;20543;-65
2023/06/22 09:56:44;;;;;;;11.45;7.00;;;23.40;99.90;;;;;;5049620;28;20049;-67
2023/06/22 09:59:10;;;;;;;15.18;7.47;;;23.50;99.90;;;;;;5068365;28;20048;-59
2023/06/22 10:01:35;;;;;;;11.32;7.00;;;23.50;99.90;;;;;;5087120;28;20360;-66
2023/06/22 10:04:02;;;;;;;12.02;6.80;;;23.40;99.90;;;;;;5075645;28;20040;-65
2023/06/22 10:06:28;;;;;;;10.40;6.68;;;23.60;99.90;;;;;;5085427;28;20736;-66
2023/06/22 10:08:54;;;;;;;9.60;6.43;;;23.60;99.90;;;;;;5085151;28;20048;-66
2023/06/22 10:11:20;;;;;;;12.13;6.85;;;23.90;99.90;;;;;;5065163;28;20063;-65
2023/06/22 10:13:45;;;;;;;12.30;7.13;;;23.90;99.90;;;;;;5065261;28;20043;-65
2023/06/22 10:16:11;;;;;;;12.20;7.53;;;23.90;99.90;;;;;;5066284;28;20105;-65
2023/06/22 10:18:37;;;;;;;13.98;7.10;;;23.90;99.90;;;;;;5048860;28;20472;-69
2023/06/22 10:21:03;;;;;;;10.90;6.00;;;23.90;99.90;;;;;;5064623;28;20580;-65
2023/06/22 10:23:29;;;;;;;14.93;6.47;;;24.00;99.90;;;;;;5066016;28;20048;-64
2023/06/22 10:25:57;;;;;;;10.73;7.35;;;23.90;99.90;;;;;;5066339;28;20045;-72
2023/06/22 10:28:23;;;;;;;11.30;7.20;;;23.80;99.90;;;;;;5058893;28;20265;-63
2023/06/22 10:30:48;;;;;;;11.25;6.63;;;23.80;99.90;;;;;;5067814;28;20032;-64
2023/06/22 10:33:14;;;;;;;13.45;7.75;;;23.90;99.90;;;;;;5087084;28;20043;-64
2023/06/22 10:35:40;;;;;;;11.05;6.40;;;23.90;99.90;;;;;;5067185;28;20129;-64
2023/06/22 10:38:06;;;;;;;12.10;7.57;;;24.00;99.90;;;;;;5049222;28;20040;-65
2023/06/22 10:40:32;;;;;;;13.30;7.00;;;23.90;99.90;;;;;;5073415;28;20078;-61
2023/06/22 10:42:58;;;;;;;13.05;6.63;;;23.90;99.90;;;;;;5086873;28;20044;-66
2023/06/22 10:45:23;;;;;;;11.50;7.90;;;23.90;99.90;;;;;;5071752;28;20530;-65
2023/06/22 10:47:49;;;;;;;12.80;7.60;;;24.10;99.90;;;;;;5065758;28;20067;-65
2023/06/22 10:50:15;;;;;;;11.75;7.82;;;24.00;99.90;;;;;;5063502;28;20440;-65
2023/06/22 10:52:43;;;;;;;13.13;7.93;;;24.10;99.90;;;;;;5064821;28;20036;-69
2023/06/22 10:55:10;;;;;;;13.15;7.85;;;24.20;99.90;;;;;;5079848;28;20047;-67
2023/06/22 10:57:36;;;;;;;12.30;6.70;;;24.30;99.90;;;;;;5085197;28;20646;-63
2023/06/22 11:00:05;;;;;;;11.10;5.63;;;24.40;99.90;;;;;;5074147;28;20062;-64
2023/06/22 11:02:31;;;;;;;11.30;7.18;;;24.50;99.90;;;;;;5066378;28;20091;-62
2023/06/22 11:05:00;;;;;;;12.05;7.28;;;24.50;99.90;;;;;;5063834;28;20674;-63
2023/06/22 11:07:27;;;;;;;11.23;6.30;;;24.40;99.90;;;;;;5064475;28;20040;-68
2023/06/22 11:09:53;;;;;;;14.15;7.47;;;24.40;99.90;;;;;;5064688;28;20131;-66
2023/06/22 11:12:18;;;;;;;10.07;6.63;;;24.50;99.90;;;;;;5065119;28;20213;-64
2023/06/22 11:14:44;;;;;;;14.60;7.70;;;24.60;99.90;;;;;;5065050;28;20044;-67
2023/06/22 11:17:10;;;;;;;12.95;7.93;;;24.50;99.90;;;;;;5065268;28;20051;-64
2023/06/22 11:19:36;;;;;;;12.20;7.43;;;24.50;99.90;;;;;;5065560;28;20056;-66
2023/06/22 11:22:02;;;;;;;12.68;8.18;;;24.60;99.90;;;;;;5047017;28;20052;-65
2023/06/22 11:24:27;;;;;;;13.10;8.15;;;24.60;99.90;;;;;;5047931;28;20182;-62
2023/06/22 11:26:53;;;;;;;13.85;7.53;;;24.40;99.90;;;;;;5066697;28;20032;-62
2023/06/22 11:29:19;;;;;;;11.93;8.00;;;24.30;99.90;;;;;;5063971;28;20093;-65
2023/06/22 11:31:45;;;;;;;11.30;7.22;;;24.30;99.90;;;;;;5064093;28;20036;-68
2023/06/22 11:34:11;;;;;;;12.38;7.13;;;24.20;99.90;;;;;;5069089;28;20119;-64
2023/06/22 11:36:36;;;;;;;11.00;6.28;;;24.20;99.90;;;;;;5066850;28;20035;-66
2023/06/22 11:39:02;;;;;;;12.60;6.22;;;24.20;99.90;;;;;;5067653;28;20047;-68
2023/06/22 11:41:28;;;;;;;8.75;6.50;;;24.30;99.90;;;;;;5081324;28;20040;-64
2023/06/22 11:43:53;;;;;;;11.80;7.03;;;24.20;99.90;;;;;;5064269;28;20113;-64
2023/06/22 11:46:20;;;;;;;10.48;6.15;;;24.20;99.90;;;;;;5064025;28;20075;-68
2023/06/22 11:48:45;;;;;;;10.80;6.28;;;24.10;99.90;;;;;;5065289;28;21347;-63
2023/06/22 11:51:11;;;;;;;12.85;8.35;;;24.20;99.90;;;;;;5082725;28;20495;-63
2023/06/22 11:53:37;;;;;;;10.40;6.38;;;24.20;99.90;;;;;;5084179;28;20177;-65
2023/06/22 11:56:03;;;;;;;12.30;6.50;;;24.20;99.90;;;;;;5064450;28;20554;-63
2023/06/22 11:58:28;;;;;;;11.90;6.22;;;24.20;99.90;;;;;;5047283;28;20041;-63
2023/06/22 12:00:54;;;;;;;10.65;5.90;;;24.30;99.90;;;;;;5062966;28;20522;-65
2023/06/22 12:03:23;;;;;;;12.27;6.03;;;24.30;99.50;;;;;;5083901;28;20074;-62
2023/06/22 12:05:52;;;;;;;12.05;7.32;;;24.20;99.50;;;;;;5047577;28;20055;-62
2023/06/22 12:08:17;;;;;;;11.75;6.30;;;24.20;99.60;;;;;;5063936;28;20059;-64
2023/06/22 12:10:43;;;;;;;10.23;5.75;;;24.30;99.70;;;;;;5063393;28;20500;-63
2023/06/22 12:13:09;;;;;;;10.73;6.35;;;24.40;99.90;;;;;;5063374;28;20032;-64
2023/06/22 12:15:35;;;;;;;11.80;6.38;;;24.50;99.90;;;;;;5064924;28;20098;-61
2023/06/22 12:18:01;;;;;;;11.43;6.65;;;24.50;99.40;;;;;;5065724;28;20091;-64
2023/06/22 12:20:27;;;;;;;11.70;5.85;;;24.50;99.40;;;;;;5079106;28;20621;-63
2023/06/22 12:22:53;;;;;;;12.48;6.38;;;24.40;99.10;;;;;;5084284;28;20055;-65
2023/06/22 12:25:19;;;;;;;12.15;6.57;;;24.40;99.90;;;;;;5073573;28;20127;-70
2023/06/22 12:27:45;;;;;;;9.07;5.47;;;24.40;99.50;;;;;;5069343;28;20067;-66
2023/06/22 12:30:11;;;;;;;8.73;5.13;;;24.40;98.60;;;;;;5071603;28;20049;-63
2023/06/22 12:32:36;;;;;;;10.77;6.15;;;24.40;96.80;;;;;;5063628;28;20040;-65
2023/06/22 12:35:02;;;;;;;9.65;5.82;;;24.40;96.80;;;;;;5061891;28;20428;-68
2023/06/22 12:37:28;;;;;;;11.18;6.15;;;24.40;97.10;;;;;;5062875;28;20037;-64
2023/06/22 12:39:54;;;;;;;12.95;6.70;;;24.40;97.30;;;;;;5064599;28;20056;-61
2023/06/22 12:42:20;;;;;;;8.18;5.57;;;24.50;97.80;;;;;;5063198;28;20048;-64
2023/06/22 12:44:46;;;;;;;12.60;5.93;;;24.50;97.20;;;;;;5046738;28;20404;-64
2023/06/22 12:47:13;;;;;;;10.57;7.00;;;24.50;97.10;;;;;;5064980;28;20047;-65
2023/06/22 12:49:39;;;;;;;11.60;6.72;;;24.50;99.10;;;;;;5062945;28;20037;-63
2023/06/22 12:52:10;;;;;;;13.07;6.30;;;24.50;99.90;;;;;;5061651;28;20507;-62
2023/06/22 12:54:38;;;;;;;12.55;7.22;;;24.50;99.90;;;;;;5047107;28;20055;-66